Time;durP1;ratioP1;P1;durP2;ratioP2;P2;SDS_P1;SDS_P2;PMS_P1;PMS_P2;Temp;Humidity;BMP_temperature;BMP_pressure;BME280_temperature;BME280_humidity;BME280_pressure;Samples;Min_cycle;Max_cycle;Signal;HPM_P1;HPM_P2
2023/12/22 00:01:11;;;;;;;1999.90;999.90;;;5.80;99.90;;;;;;5048001;28;20476;-73
2023/12/22 00:03:38;;;;;;;1999.90;999.90;;;5.90;99.90;;;;;;5052572;28;20506;-77
2023/12/22 00:06:05;;;;;;;1999.90;999.90;;;5.90;99.90;;;;;;5053655;28;20455;-76
2023/12/22 00:08:31;;;;;;;1999.90;999.90;;;5.90;99.90;;;;;;5053982;28;20434;-75
2023/12/22 00:10:59;;;;;;;1999.90;999.90;;;5.80;99.90;;;;;;5054650;28;21052;-76
2023/12/22 00:13:26;;;;;;;1999.90;999.90;;;5.70;99.90;;;;;;5055520;28;20858;-76
2023/12/22 00:15:53;;;;;;;1999.90;999.90;;;5.70;99.90;;;;;;5054357;28;20865;-76
2023/12/22 00:18:19;;;;;;;1999.90;999.90;;;5.60;99.90;;;;;;5051298;28;20971;-76
2023/12/22 00:20:46;;;;;;;1999.90;999.90;;;5.70;99.90;;;;;;5053576;28;20447;-75
2023/12/22 00:23:13;;;;;;;1999.90;999.90;;;5.70;99.90;;;;;;5052056;28;20437;-76
2023/12/22 00:25:39;;;;;;;1999.90;999.90;;;5.60;99.90;;;;;;5053733;28;20765;-74
2023/12/22 00:28:07;;;;;;;1999.90;999.90;;;5.60;99.90;;;;;;5053469;28;20769;-75
2023/12/22 00:30:34;;;;;;;1999.90;999.90;;;5.60;99.90;;;;;;5053415;28;20413;-77
2023/12/22 00:33:01;;;;;;;1999.90;999.90;;;5.60;99.90;;;;;;5053969;28;20410;-77
2023/12/22 00:35:27;;;;;;;1999.90;999.90;;;5.70;99.90;;;;;;5050957;28;20488;-76
2023/12/22 00:37:54;;;;;;;1999.90;999.90;;;5.80;99.90;;;;;;5054093;28;20413;-74
2023/12/22 00:40:21;;;;;;;1999.90;999.90;;;5.80;99.90;;;;;;5054481;28;20421;-76
2023/12/22 00:42:47;;;;;;;1999.90;999.90;;;5.80;99.90;;;;;;5057110;28;20894;-77
2023/12/22 00:45:15;;;;;;;1999.90;999.90;;;5.80;99.90;;;;;;5055799;28;20417;-75
2023/12/22 00:47:42;;;;;;;1999.90;999.90;;;5.80;99.90;;;;;;5056865;28;20413;-73
2023/12/22 00:50:09;;;;;;;1999.90;999.90;;;5.80;99.90;;;;;;5056256;28;20425;-75
2023/12/22 00:52:36;;;;;;;1999.90;999.90;;;5.80;99.90;;;;;;5056499;28;20413;-76
2023/12/22 00:55:03;;;;;;;1999.90;999.90;;;5.80;99.90;;;;;;5056686;28;20410;-77
2023/12/22 00:57:30;;;;;;;1999.90;999.90;;;5.70;99.90;;;;;;5049831;28;20405;-76
2023/12/22 00:59:57;;;;;;;1999.90;999.90;;;5.70;99.90;;;;;;5054347;28;20467;-75
2023/12/22 01:02:25;;;;;;;1999.90;999.90;;;5.50;99.90;;;;;;5050066;28;20433;-74
2023/12/22 01:04:52;;;;;;;1999.90;999.90;;;5.40;99.90;;;;;;5052974;28;20417;-76
2023/12/22 01:07:18;;;;;;;1999.90;999.90;;;5.30;99.90;;;;;;5053066;28;20410;-76
2023/12/22 01:09:45;;;;;;;1999.90;999.90;;;5.10;99.90;;;;;;5053892;28;20463;-75
2023/12/22 01:12:12;;;;;;;1999.90;999.90;;;5.10;99.90;;;;;;5053548;28;20414;-77
2023/12/22 01:14:38;;;;;;;1999.90;999.90;;;5.10;99.90;;;;;;5052899;28;20417;-76
2023/12/22 01:17:05;;;;;;;1999.90;999.90;;;5.10;99.90;;;;;;5050567;28;20479;-73
2023/12/22 01:19:33;;;;;;;1999.90;999.90;;;5.10;99.90;;;;;;5054411;28;20420;-77
2023/12/22 01:22:00;;;;;;;1999.90;999.90;;;5.10;99.90;;;;;;5054299;28;20417;-73
2023/12/22 01:24:26;;;;;;;1999.90;999.90;;;5.20;99.90;;;;;;5053751;28;20845;-75
2023/12/22 01:26:53;;;;;;;1999.90;999.90;;;5.20;99.90;;;;;;5052516;28;20409;-77
2023/12/22 01:29:20;;;;;;;1999.90;999.90;;;5.30;99.90;;;;;;5051777;28;20459;-75
2023/12/22 01:31:46;;;;;;;1999.90;999.90;;;5.40;99.90;;;;;;5053343;28;20413;-74
2023/12/22 01:34:13;;;;;;;1999.90;999.90;;;5.50;99.90;;;;;;5050835;28;20409;-76
2023/12/22 01:36:41;;;;;;;1999.90;999.90;;;5.50;99.90;;;;;;5053467;28;20467;-75
2023/12/22 01:39:08;;;;;;;1999.90;999.90;;;5.50;99.90;;;;;;5054503;28;20422;-77
2023/12/22 01:41:35;;;;;;;1999.90;999.90;;;5.50;99.90;;;;;;5054099;28;20421;-74
2023/12/22 01:44:02;;;;;;;1999.90;999.90;;;5.40;99.90;;;;;;5051667;28;20840;-77
2023/12/22 01:46:29;;;;;;;1999.90;999.90;;;5.40;99.90;;;;;;5046690;28;20414;-76
2023/12/22 01:48:56;;;;;;;1999.90;999.90;;;5.40;99.90;;;;;;5050688;28;20455;-75
2023/12/22 01:51:22;;;;;;;1999.90;999.90;;;5.50;99.90;;;;;;5053634;28;20949;-75
2023/12/22 01:53:52;;;;;;;1999.90;999.90;;;5.50;99.90;;;;;;5056827;28;20940;-76
2023/12/22 01:56:19;;;;;;;1999.90;999.90;;;5.60;99.90;;;;;;5056652;28;20425;-75
2023/12/22 01:58:46;;;;;;;1999.90;999.90;;;5.60;99.90;;;;;;5051154;28;20435;-76
2023/12/22 02:01:13;;;;;;;1999.90;999.90;;;5.60;99.90;;;;;;5056630;28;20421;-76
2023/12/22 02:03:40;;;;;;;1999.90;999.90;;;5.60;99.90;;;;;;5055461;28;20483;-76
2023/12/22 02:06:06;;;;;;;1999.90;999.90;;;5.60;99.90;;;;;;5056659;28;20413;-75
2023/12/22 02:08:34;;;;;;;1999.90;999.90;;;5.60;99.90;;;;;;5058087;28;20775;-75
2023/12/22 02:11:02;;;;;;;1999.90;999.90;;;5.60;99.90;;;;;;5056058;28;20440;-76
2023/12/22 02:13:29;;;;;;;1999.90;999.90;;;5.50;99.90;;;;;;5050788;28;20401;-77
2023/12/22 02:16:04;;;;;;;1999.90;999.90;;;5.50;99.90;;;;;;5057067;28;20413;-75
2023/12/22 02:18:36;;;;;;;1999.90;999.90;;;5.50;99.90;;;;;;5056829;28;20413;-76
2023/12/22 02:21:03;;;;;;;1999.90;999.90;;;5.50;99.90;;;;;;5055540;28;20919;-75
2023/12/22 02:23:31;;;;;;;1999.90;999.90;;;5.60;99.90;;;;;;5048692;28;20989;-76
2023/12/22 02:26:07;;;;;;;1999.90;999.90;;;5.60;99.90;;;;;;5055158;28;20445;-77
2023/12/22 02:28:36;;;;;;;1999.90;999.90;;;5.60;99.90;;;;;;5045663;28;20409;-76
2023/12/22 02:31:18;;;;;;;1999.90;999.90;;;5.60;99.90;;;;;;5053847;28;20417;-74
2023/12/22 02:33:46;;;;;;;1999.90;999.90;;;5.60;99.90;;;;;;5048222;28;20549;-76
2023/12/22 02:36:15;;;;;;;1999.90;999.90;;;5.60;99.90;;;;;;5055652;28;20405;-76
2023/12/22 02:38:44;;;;;;;1999.90;999.90;;;5.50;99.90;;;;;;5050146;28;20440;-75
2023/12/22 02:41:11;;;;;;;1999.90;999.90;;;5.50;99.90;;;;;;5050755;28;20483;-76
2023/12/22 02:43:38;;;;;;;1999.90;999.90;;;5.90;99.90;;;;;;5053944;28;20475;-76
2023/12/22 02:46:05;;;;;;;1999.90;999.90;;;5.60;99.90;;;;;;5056706;28;20423;-73
2023/12/22 02:48:31;;;;;;;1999.90;999.90;;;5.50;99.90;;;;;;5057491;28;20417;-76
2023/12/22 02:50:58;;;;;;;1999.90;999.90;;;5.50;99.90;;;;;;5055296;28;20768;-76
2023/12/22 02:53:25;;;;;;;1999.90;999.90;;;5.50;99.90;;;;;;5049812;28;20463;-75
2023/12/22 02:55:53;;;;;;;1999.90;999.90;;;5.50;99.90;;;;;;5057923;28;20833;-75
2023/12/22 02:58:20;;;;;;;1999.90;999.90;;;5.60;99.90;;;;;;5054857;28;20825;-75
2023/12/22 03:00:47;;;;;;;1999.90;999.90;;;5.50;99.90;;;;;;5055161;28;20411;-73
2023/12/22 03:03:14;;;;;;;1999.90;999.90;;;5.50;99.90;;;;;;5055181;28;20522;-76
2023/12/22 03:05:41;;;;;;;1999.90;999.90;;;5.50;99.90;;;;;;5055511;28;20495;-76
2023/12/22 03:08:08;;;;;;;1999.90;999.90;;;5.50;99.90;;;;;;5056433;28;21087;-71
2023/12/22 03:10:34;;;;;;;1999.90;999.90;;;5.50;99.90;;;;;;5057640;28;20408;-76
2023/12/22 03:13:02;;;;;;;1999.90;999.90;;;5.50;99.90;;;;;;5059267;28;20421;-75
2023/12/22 03:15:29;;;;;;;1999.90;999.90;;;5.40;99.90;;;;;;5052440;28;20414;-71
2023/12/22 03:17:56;;;;;;;1999.90;999.90;;;5.40;99.90;;;;;;5054902;28;20437;-75
2023/12/22 03:20:22;;;;;;;1999.90;999.90;;;5.30;99.90;;;;;;5057543;28;20412;-75
2023/12/22 03:22:48;;;;;;;1999.90;999.90;;;5.30;99.90;;;;;;5050968;28;20434;-76
2023/12/22 03:25:15;;;;;;;1999.90;999.90;;;5.30;99.90;;;;;;5054834;28;20425;-76
2023/12/22 03:27:42;;;;;;;1999.90;999.90;;;5.30;99.90;;;;;;5056669;28;20424;-76
2023/12/22 03:30:11;;;;;;;1999.90;999.90;;;5.30;99.90;;;;;;5057534;28;20414;-74
2023/12/22 03:32:37;;;;;;;1999.90;999.90;;;5.30;99.90;;;;;;5057672;28;20417;-74
2023/12/22 03:35:05;;;;;;;1999.90;999.90;;;5.30;99.90;;;;;;5059525;28;20413;-74
2023/12/22 03:37:32;;;;;;;1999.90;999.90;;;5.20;99.90;;;;;;5057409;28;20437;-70
2023/12/22 03:39:58;;;;;;;1999.90;999.90;;;5.30;99.90;;;;;;5059533;28;20429;-74
2023/12/22 03:42:25;;;;;;;1999.90;999.90;;;5.40;99.90;;;;;;5058441;28;20402;-74
2023/12/22 03:44:52;;;;;;;1999.90;999.90;;;5.40;99.90;;;;;;5059741;28;20432;-75
2023/12/22 03:47:20;;;;;;;1999.90;999.90;;;5.40;99.90;;;;;;5058857;28;20853;-74
2023/12/22 03:49:46;;;;;;;1999.90;999.90;;;5.40;99.90;;;;;;5059191;28;20413;-73
2023/12/22 03:52:14;;;;;;;1999.90;999.90;;;5.20;99.90;;;;;;5052272;28;20519;-74
2023/12/22 03:54:41;;;;;;;1999.90;999.90;;;5.10;99.90;;;;;;5053913;28;20413;-76
2023/12/22 03:57:07;;;;;;;1999.90;999.90;;;5.10;99.90;;;;;;5053608;28;20409;-74
2023/12/22 03:59:34;;;;;;;1999.90;999.90;;;5.10;99.90;;;;;;5054803;28;20425;-73
2023/12/22 04:02:02;;;;;;;1999.90;999.90;;;5.10;99.90;;;;;;5055795;28;20420;-75
2023/12/22 04:04:30;;;;;;;1999.90;999.90;;;5.10;99.90;;;;;;5054270;28;20435;-74
2023/12/22 04:06:56;;;;;;;1999.90;999.90;;;5.20;99.90;;;;;;5052217;28;20575;-74
2023/12/22 04:09:23;;;;;;;1999.90;999.90;;;5.20;99.90;;;;;;5057838;28;20421;-76
2023/12/22 04:11:50;;;;;;;1999.90;999.90;;;5.20;99.90;;;;;;5057457;28;20417;-75
2023/12/22 04:14:18;;;;;;;1999.90;999.90;;;5.30;99.90;;;;;;5056737;28;20938;-73
2023/12/22 04:16:44;;;;;;;1999.90;999.90;;;5.30;99.90;;;;;;5054967;28;20445;-76
2023/12/22 04:19:11;;;;;;;1999.90;999.90;;;5.40;99.90;;;;;;5047958;28;20509;-73
2023/12/22 04:21:39;;;;;;;1999.90;999.90;;;5.30;99.90;;;;;;5051826;28;20958;-72
2023/12/22 04:24:06;;;;;;;1999.90;999.90;;;5.40;99.90;;;;;;5057046;28;20421;-75
2023/12/22 04:26:33;;;;;;;1999.90;999.90;;;5.40;99.90;;;;;;5055343;28;20413;-75
2023/12/22 04:28:59;;;;;;;1999.90;999.90;;;5.40;99.90;;;;;;5055500;28;20407;-71
2023/12/22 04:31:26;;;;;;;1999.90;999.90;;;5.40;99.90;;;;;;5054962;28;20468;-75
2023/12/22 04:33:53;;;;;;;1999.90;999.90;;;5.40;99.90;;;;;;5055565;28;20455;-74
2023/12/22 04:36:19;;;;;;;1999.90;999.90;;;5.40;99.90;;;;;;5050122;28;20451;-74
2023/12/22 04:38:48;;;;;;;1999.90;999.90;;;5.40;99.90;;;;;;5055941;28;20791;-76
2023/12/22 04:41:14;;;;;;;1999.90;999.90;;;5.30;99.90;;;;;;5055787;28;20443;-76
2023/12/22 04:43:41;;;;;;;1999.90;999.90;;;5.30;99.90;;;;;;5054110;28;20474;-70
2023/12/22 04:46:08;;;;;;;1999.90;999.90;;;5.30;99.90;;;;;;5055680;28;20799;-75
2023/12/22 04:48:35;;;;;;;1999.90;999.90;;;5.40;99.90;;;;;;5053216;28;20834;-75
2023/12/22 04:51:01;;;;;;;1999.90;999.90;;;5.40;99.90;;;;;;5053668;28;20440;-74
2023/12/22 04:53:28;;;;;;;1999.90;999.90;;;5.40;99.90;;;;;;5054488;28;20409;-75
2023/12/22 04:55:56;;;;;;;1999.90;999.90;;;5.40;99.90;;;;;;5054418;28;20417;-76
2023/12/22 04:58:23;;;;;;;1999.90;999.90;;;5.40;99.90;;;;;;5051147;28;20437;-71
2023/12/22 05:00:50;;;;;;;1999.90;999.90;;;5.40;99.90;;;;;;5053736;28;20447;-76
2023/12/22 05:03:17;;;;;;;1999.90;999.90;;;5.40;99.90;;;;;;5051181;28;20502;-75
2023/12/22 05:05:44;;;;;;;1999.90;999.90;;;5.40;99.90;;;;;;5052814;28;20420;-71
2023/12/22 05:08:10;;;;;;;1999.90;999.90;;;5.50;99.90;;;;;;5053882;28;20448;-75
2023/12/22 05:10:37;;;;;;;1999.90;999.90;;;5.60;99.90;;;;;;5055137;28;20421;-71
2023/12/22 05:13:05;;;;;;;1999.90;999.90;;;5.60;99.90;;;;;;5053724;28;20409;-75
2023/12/22 05:15:32;;;;;;;1999.90;999.90;;;5.50;99.90;;;;;;5047426;28;20429;-75
2023/12/22 05:17:58;;;;;;;1999.90;999.90;;;5.60;99.90;;;;;;5052797;28;20760;-74
2023/12/22 05:20:25;;;;;;;1999.90;999.90;;;5.50;99.90;;;;;;5052162;28;20430;-75
2023/12/22 05:22:52;;;;;;;1999.90;999.90;;;5.50;99.90;;;;;;5050910;28;20439;-76
2023/12/22 05:25:18;;;;;;;1999.90;999.90;;;5.50;99.90;;;;;;5054017;28;20433;-75
2023/12/22 05:27:45;;;;;;;1999.90;999.90;;;5.50;99.90;;;;;;5055153;28;20420;-75
2023/12/22 05:30:14;;;;;;;1999.90;999.90;;;5.50;99.90;;;;;;5054555;28;20421;-76
2023/12/22 05:32:41;;;;;;;1999.90;999.90;;;5.60;99.90;;;;;;5055455;28;20436;-75
2023/12/22 05:35:09;;;;;;;1999.90;999.90;;;5.60;99.90;;;;;;5052053;28;20433;-70
2023/12/22 05:37:36;;;;;;;1999.90;999.90;;;5.50;99.90;;;;;;5050407;28;20869;-74
2023/12/22 05:40:06;;;;;;;1999.90;999.90;;;5.50;99.90;;;;;;5053877;28;20489;-75
2023/12/22 05:42:33;;;;;;;1999.90;999.90;;;5.50;99.90;;;;;;5053294;28;20475;-77
2023/12/22 05:44:59;;;;;;;1999.90;999.90;;;5.60;99.90;;;;;;5054149;28;20436;-75
2023/12/22 05:47:27;;;;;;;1999.90;999.90;;;5.60;99.90;;;;;;5053986;28;20429;-75
2023/12/22 05:49:54;;;;;;;1999.90;999.90;;;5.60;99.90;;;;;;5053438;28;20424;-75
2023/12/22 05:52:21;;;;;;;1999.90;999.90;;;5.60;99.90;;;;;;5050022;28;20421;-76
2023/12/22 05:54:47;;;;;;;1999.90;999.90;;;5.60;99.90;;;;;;5054904;28;20949;-74
2023/12/22 05:57:14;;;;;;;1999.90;999.90;;;5.60;99.90;;;;;;5054641;28;20423;-75
2023/12/22 05:59:41;;;;;;;1999.90;999.90;;;5.60;99.90;;;;;;5053161;28;20417;-74
2023/12/22 06:02:08;;;;;;;1999.90;999.90;;;5.60;99.90;;;;;;5039604;28;20932;-74
2023/12/22 06:04:35;;;;;;;1999.90;999.90;;;5.60;99.90;;;;;;5053314;28;20436;-76
2023/12/22 06:07:02;;;;;;;1999.90;999.90;;;5.60;99.90;;;;;;5046807;28;20850;-75
2023/12/22 06:09:29;;;;;;;1999.90;999.90;;;5.60;99.90;;;;;;5053641;28;20502;-74
2023/12/22 06:11:55;;;;;;;1999.90;999.90;;;5.40;99.90;;;;;;5054772;28;21079;-75
2023/12/22 06:14:22;;;;;;;1999.90;999.90;;;5.20;99.90;;;;;;5051955;28;20459;-75
2023/12/22 06:16:50;;;;;;;1999.90;999.90;;;5.10;99.90;;;;;;5046934;28;20512;-76
2023/12/22 06:19:17;;;;;;;1999.90;999.90;;;5.00;99.90;;;;;;5049116;28;20429;-71
2023/12/22 06:21:45;;;;;;;1999.90;999.90;;;5.00;99.90;;;;;;5047677;28;20447;-75
2023/12/22 06:24:12;;;;;;;1999.90;999.90;;;5.00;99.90;;;;;;5053044;28;20487;-77
2023/12/22 06:26:38;;;;;;;1999.90;999.90;;;5.30;99.90;;;;;;5055654;28;20495;-74
2023/12/22 06:29:05;;;;;;;1999.90;999.90;;;5.10;99.90;;;;;;5056075;28;20475;-75
2023/12/22 06:31:32;;;;;;;1999.90;999.90;;;5.20;99.90;;;;;;5056714;28;20413;-75
2023/12/22 06:34:01;;;;;;;1999.90;999.90;;;5.20;99.90;;;;;;5044981;28;20468;-75
2023/12/22 06:36:29;;;;;;;1999.90;999.90;;;5.30;99.90;;;;;;5060023;28;20421;-77
2023/12/22 06:38:58;;;;;;;1999.90;999.90;;;5.40;99.90;;;;;;5054748;28;20461;-73
2023/12/22 06:41:26;;;;;;;1999.90;999.90;;;5.30;99.90;;;;;;5065935;28;20511;-75
2023/12/22 06:43:53;;;;;;;1999.90;999.90;;;5.30;99.90;;;;;;5061520;28;20512;-75
2023/12/22 06:46:22;;;;;;;1999.90;999.90;;;5.50;99.90;;;;;;5066354;28;20411;-74
2023/12/22 06:48:49;;;;;;;1999.90;999.90;;;5.50;99.90;;;;;;5062659;28;20422;-75
2023/12/22 06:51:20;;;;;;;1999.90;999.90;;;5.50;99.90;;;;;;5060445;28;20497;-75
2023/12/22 06:53:46;;;;;;;1999.90;999.90;;;5.50;99.90;;;;;;5063603;28;20489;-75
2023/12/22 06:56:19;;;;;;;1999.90;999.90;;;5.50;99.90;;;;;;5072939;28;20427;-76
2023/12/22 06:58:48;;;;;;;1999.90;999.90;;;5.50;99.90;;;;;;5071235;28;20414;-74
2023/12/22 07:01:19;;;;;;;1999.90;999.90;;;5.60;99.90;;;;;;5071523;28;20532;-73
2023/12/22 07:03:47;;;;;;;1999.90;999.90;;;5.50;99.90;;;;;;5069579;28;20411;-75
2023/12/22 07:06:14;;;;;;;1999.90;999.90;;;5.60;99.90;;;;;;5065845;28;20429;-74
2023/12/22 07:08:42;;;;;;;1999.90;999.90;;;5.60;99.90;;;;;;5061835;28;20918;-75
2023/12/22 07:11:09;;;;;;;1999.90;999.90;;;5.60;99.90;;;;;;5076294;28;20419;-75
2023/12/22 07:13:37;;;;;;;1999.90;999.90;;;5.30;99.90;;;;;;5061576;28;20824;-73
2023/12/22 07:16:04;;;;;;;1999.90;999.90;;;4.70;99.90;;;;;;5070754;28;20404;-74
2023/12/22 07:18:31;;;;;;;1999.90;999.90;;;4.30;99.90;;;;;;5066314;28;20407;-73
2023/12/22 07:20:58;;;;;;;1999.90;999.90;;;4.10;99.90;;;;;;5059384;28;20442;-74
2023/12/22 07:23:24;;;;;;;1999.90;999.90;;;4.10;99.90;;;;;;5061021;28;20417;-70
2023/12/22 07:25:51;;;;;;;1999.90;999.90;;;4.10;99.90;;;;;;5059351;28;20429;-73
2023/12/22 07:28:18;;;;;;;1999.90;999.90;;;4.00;99.90;;;;;;5061437;28;20409;-73
2023/12/22 07:30:46;;;;;;;1999.90;999.90;;;3.90;99.90;;;;;;5057105;28;20425;-72
2023/12/22 07:33:13;;;;;;;1999.90;999.90;;;3.90;99.90;;;;;;5054525;28;20480;-76
2023/12/22 07:35:39;;;;;;;1999.90;999.90;;;3.90;99.90;;;;;;5061532;28;20480;-74
2023/12/22 07:38:06;;;;;;;1999.90;999.90;;;3.80;99.90;;;;;;5058358;28;20409;-74
2023/12/22 07:40:33;;;;;;;1999.90;999.90;;;3.80;99.90;;;;;;5054288;28;20409;-76
2023/12/22 07:42:59;;;;;;;1999.90;999.90;;;3.80;99.90;;;;;;5053975;28;20409;-74
2023/12/22 07:45:26;;;;;;;1999.90;999.90;;;3.70;99.90;;;;;;5054612;28;20428;-76
2023/12/22 07:47:54;;;;;;;1999.90;999.90;;;3.70;99.90;;;;;;5057157;28;20413;-73
2023/12/22 07:50:21;;;;;;;1999.90;999.90;;;3.80;99.90;;;;;;5057118;28;20409;-75
2023/12/22 07:52:48;;;;;;;1999.90;999.90;;;3.80;99.90;;;;;;5053950;28;20420;-74
2023/12/22 07:55:15;;;;;;;1999.90;999.90;;;3.90;99.90;;;;;;5057457;28;20420;-77
2023/12/22 07:57:42;;;;;;;1999.90;999.90;;;3.90;99.90;;;;;;5057764;28;20804;-74
2023/12/22 08:00:11;;;;;;;1999.90;999.90;;;3.90;99.90;;;;;;5056914;28;20413;-71
2023/12/22 08:02:38;;;;;;;1999.90;999.90;;;3.90;99.90;;;;;;5058531;28;20963;-74
2023/12/22 08:05:06;;;;;;;1999.90;999.90;;;3.80;99.90;;;;;;5055594;28;20427;-77
2023/12/22 08:07:33;;;;;;;1999.90;999.90;;;3.90;99.90;;;;;;5052063;28;20452;-75
2023/12/22 08:10:01;;;;;;;1999.90;999.90;;;3.90;99.90;;;;;;5057298;28;20428;-75
2023/12/22 08:12:28;;;;;;;1999.90;999.90;;;3.90;99.90;;;;;;5061268;28;20413;-75
2023/12/22 08:14:54;;;;;;;1999.90;999.90;;;3.90;99.90;;;;;;5061383;28;20444;-74
2023/12/22 08:17:21;;;;;;;1999.90;999.90;;;3.90;99.90;;;;;;5061818;28;20800;-74
2023/12/22 08:19:48;;;;;;;1999.90;999.90;;;3.80;99.90;;;;;;5060317;28;20413;-74
2023/12/22 08:22:16;;;;;;;1999.90;999.90;;;3.80;99.90;;;;;;5057459;28;20433;-75
2023/12/22 08:24:42;;;;;;;1999.90;999.90;;;3.50;99.90;;;;;;5059661;28;20433;-74
2023/12/22 08:27:10;;;;;;;1999.90;999.90;;;3.00;99.90;;;;;;5057224;28;20942;-79
2023/12/22 08:29:36;;;;;;;1999.90;999.90;;;2.70;99.90;;;;;;5061186;28;20667;-74
2023/12/22 08:32:04;;;;;;;1999.90;999.90;;;2.50;99.90;;;;;;5067976;28;20901;-74
2023/12/22 08:34:30;;;;;;;1999.90;999.90;;;2.50;99.90;;;;;;5057705;28;20456;-73
2023/12/22 08:36:57;;;;;;;1999.90;999.90;;;2.50;99.90;;;;;;5069546;28;20419;-72
2023/12/22 08:39:26;;;;;;;1999.90;999.90;;;2.50;99.90;;;;;;5059743;28;20445;-73
2023/12/22 08:41:53;;;;;;;1999.90;999.90;;;2.60;99.90;;;;;;5056505;28;20488;-72
2023/12/22 08:44:20;;;;;;;1999.90;999.90;;;2.70;99.90;;;;;;5053831;28;20479;-70
2023/12/22 08:46:46;;;;;;;1999.90;999.90;;;2.90;99.90;;;;;;5058089;28;20413;-74
2023/12/22 08:49:13;;;;;;;1999.90;999.90;;;3.00;99.90;;;;;;5057342;28;20417;-72
2023/12/22 08:51:41;;;;;;;1999.90;999.90;;;3.20;99.90;;;;;;5056747;28;20420;-71
2023/12/22 08:54:07;;;;;;;1999.90;999.90;;;3.40;99.90;;;;;;5057609;28;20417;-73
2023/12/22 08:56:36;;;;;;;1999.90;999.90;;;3.50;99.90;;;;;;5056861;28;20808;-71
2023/12/22 08:59:02;;;;;;;1999.90;999.90;;;3.70;99.90;;;;;;5053624;28;20522;-74
2023/12/22 09:01:29;;;;;;;1999.90;999.90;;;3.90;99.90;;;;;;5056054;28;20421;-73
2023/12/22 09:03:56;;;;;;;1999.90;999.90;;;4.10;99.90;;;;;;5055879;28;20418;-73
2023/12/22 09:06:24;;;;;;;1999.90;999.90;;;4.30;99.90;;;;;;5055254;28;20459;-72
2023/12/22 09:08:52;;;;;;;1999.90;999.90;;;4.40;99.90;;;;;;5057104;28;20413;-72
2023/12/22 09:11:21;;;;;;;1999.90;999.90;;;4.60;99.90;;;;;;5055697;28;20962;-73
2023/12/22 09:13:49;;;;;;;1999.90;999.90;;;4.70;99.90;;;;;;5054031;28;20413;-74
2023/12/22 09:16:21;;;;;;;1999.90;999.90;;;4.80;99.90;;;;;;5053654;28;20954;-73
2023/12/22 09:18:49;;;;;;;1999.90;999.90;;;4.90;99.90;;;;;;5054304;28;20898;-73
2023/12/22 09:21:17;;;;;;;1999.90;999.90;;;4.90;99.90;;;;;;5052799;28;20509;-76
2023/12/22 09:23:45;;;;;;;1999.90;999.90;;;5.00;99.90;;;;;;5045815;28;20440;-75
2023/12/22 09:26:12;;;;;;;1999.90;999.90;;;5.00;99.90;;;;;;5052779;28;20424;-77
2023/12/22 09:28:39;;;;;;;1999.90;999.90;;;5.10;99.90;;;;;;5053309;28;20413;-73
2023/12/22 09:31:07;;;;;;;1999.90;999.90;;;5.10;99.90;;;;;;5052641;28;20462;-75
2023/12/22 09:33:34;;;;;;;1999.90;999.90;;;5.20;99.90;;;;;;5050852;28;20479;-71
2023/12/22 09:36:01;;;;;;;1999.90;999.90;;;5.30;99.90;;;;;;5052634;28;20484;-76
2023/12/22 09:38:27;;;;;;;1999.90;999.90;;;5.40;99.90;;;;;;5053077;28;20413;-75
2023/12/22 09:40:55;;;;;;;1999.90;999.90;;;5.40;99.90;;;;;;5054514;28;20429;-74
2023/12/22 09:43:23;;;;;;;1999.90;999.90;;;5.40;99.90;;;;;;5050695;28;20455;-72
2023/12/22 09:45:50;;;;;;;1999.90;999.90;;;5.40;99.90;;;;;;5051230;28;20437;-73
2023/12/22 09:48:26;;;;;;;1999.90;999.90;;;5.40;99.90;;;;;;5053032;28;20474;-76
2023/12/22 09:50:54;;;;;;;1999.90;999.90;;;5.40;99.90;;;;;;5048577;28;20416;-76
2023/12/22 09:53:21;;;;;;;1999.90;999.90;;;5.40;99.90;;;;;;5051573;28;20453;-73
2023/12/22 09:55:50;;;;;;;1999.90;999.90;;;5.70;99.90;;;;;;5047191;28;20409;-76
2023/12/22 09:58:18;;;;;;;1999.90;999.90;;;5.60;99.90;;;;;;5052812;28;20410;-74
2023/12/22 10:00:44;;;;;;;1999.90;999.90;;;5.70;99.90;;;;;;5050345;28;20429;-75
2023/12/22 10:03:13;;;;;;;1999.90;999.90;;;5.80;99.90;;;;;;5054097;28;20408;-73
2023/12/22 10:05:43;;;;;;;1999.90;999.90;;;5.90;99.90;;;;;;5052554;28;20425;-74
2023/12/22 10:08:11;;;;;;;1999.90;999.90;;;6.00;99.90;;;;;;5052266;28;20430;-74
2023/12/22 10:10:39;;;;;;;1999.90;999.90;;;6.10;99.90;;;;;;5054436;28;20504;-74
2023/12/22 10:13:08;;;;;;;1999.90;999.90;;;6.10;99.90;;;;;;5050564;28;20918;-73
2023/12/22 10:15:37;;;;;;;1999.90;999.90;;;6.10;99.90;;;;;;5054210;28;20474;-76
2023/12/22 10:18:04;;;;;;;1999.90;999.90;;;6.10;99.90;;;;;;5055143;28;20413;-74
2023/12/22 10:20:31;;;;;;;1999.90;999.90;;;6.10;99.90;;;;;;5059657;28;20411;-74
2023/12/22 10:22:59;;;;;;;1999.90;999.90;;;6.00;99.90;;;;;;5052785;28;20433;-75
2023/12/22 10:25:30;;;;;;;1999.90;999.90;;;6.10;99.90;;;;;;5051914;28;20973;-74
2023/12/22 10:27:56;;;;;;;1999.90;999.90;;;6.10;99.90;;;;;;5049402;28;20470;-76
2023/12/22 10:30:24;;;;;;;1999.90;999.90;;;6.20;99.90;;;;;;5051711;28;21247;-74
2023/12/22 10:32:52;;;;;;;1999.90;999.90;;;6.20;99.90;;;;;;5052056;28;20417;-74
2023/12/22 10:35:20;;;;;;;1999.90;999.90;;;6.20;99.90;;;;;;5050758;28;20512;-73
2023/12/22 10:37:47;;;;;;;1999.90;999.90;;;6.30;99.90;;;;;;5052172;28;20413;-75
2023/12/22 10:40:18;;;;;;;1999.90;999.90;;;6.60;99.90;;;;;;5051647;28;20974;-74
2023/12/22 10:42:44;;;;;;;1999.90;999.90;;;6.20;99.90;;;;;;5051139;28;20421;-76
2023/12/22 10:45:11;;;;;;;1999.90;999.90;;;6.30;99.90;;;;;;5051822;28;20451;-74
2023/12/22 10:47:40;;;;;;;1999.90;999.90;;;6.30;99.90;;;;;;5051624;28;20471;-74
2023/12/22 10:50:07;;;;;;;1999.90;999.90;;;6.20;99.90;;;;;;5051568;28;20492;-75
2023/12/22 10:52:35;;;;;;;1999.90;999.90;;;6.20;99.90;;;;;;5052112;28;20420;-75
2023/12/22 10:55:02;;;;;;;1999.90;999.90;;;6.20;99.90;;;;;;5048944;28;20483;-74
2023/12/22 10:57:37;;;;;;;1999.90;999.90;;;6.20;99.90;;;;;;5051668;28;20424;-69
2023/12/22 11:00:07;;;;;;;1999.90;999.90;;;6.30;99.90;;;;;;5051854;28;20414;-74
2023/12/22 11:02:35;;;;;;;1999.90;999.90;;;6.30;99.90;;;;;;5046568;28;21339;-74
2023/12/22 11:05:04;;;;;;;1999.90;999.90;;;6.40;99.90;;;;;;5051219;28;20424;-71
2023/12/22 11:07:35;;;;;;;1999.90;999.90;;;6.40;99.90;;;;;;5052969;28;20487;-69
2023/12/22 11:10:04;;;;;;;1999.90;999.90;;;6.30;99.90;;;;;;5055179;28;20496;-70
2023/12/22 11:12:34;;;;;;;1999.90;999.90;;;6.30;99.90;;;;;;5054908;28;20420;-70
2023/12/22 11:15:03;;;;;;;1999.90;999.90;;;6.40;99.90;;;;;;5054187;28;20867;-69
2023/12/22 11:17:31;;;;;;;1999.90;999.90;;;6.40;99.90;;;;;;5049038;28;20459;-70
2023/12/22 11:19:58;;;;;;;1999.90;999.90;;;6.30;99.90;;;;;;5053186;28;20413;-73
2023/12/22 11:22:26;;;;;;;1999.90;999.90;;;6.30;99.90;;;;;;5051107;28;21017;-69
2023/12/22 11:24:54;;;;;;;1999.90;999.90;;;6.30;99.90;;;;;;5054101;28;20961;-71
2023/12/22 11:27:21;;;;;;;1999.90;999.90;;;6.40;99.90;;;;;;5052530;28;20483;-69
2023/12/22 11:29:50;;;;;;;1999.90;999.90;;;6.50;99.90;;;;;;5051661;28;20482;-69
2023/12/22 11:32:19;;;;;;;1999.90;999.90;;;6.50;99.90;;;;;;5047125;28;20918;-71
2023/12/22 11:34:46;;;;;;;1999.90;999.90;;;6.60;99.90;;;;;;5053213;28;21075;-70
2023/12/22 11:37:14;;;;;;;1999.90;999.90;;;6.50;99.90;;;;;;5050871;28;20409;-70
2023/12/22 11:39:41;;;;;;;1999.90;999.90;;;6.50;99.90;;;;;;5053022;28;20401;-74
2023/12/22 11:42:11;;;;;;;1999.90;999.90;;;6.50;99.90;;;;;;5048836;28;20441;-74
2023/12/22 11:44:37;;;;;;;1999.90;999.90;;;6.50;99.90;;;;;;5052750;28;20421;-75
2023/12/22 11:47:07;;;;;;;1999.90;999.90;;;6.60;99.90;;;;;;5053680;28;20842;-69
2023/12/22 11:49:35;;;;;;;1999.90;999.90;;;6.60;99.90;;;;;;5050719;28;20883;-71
2023/12/22 11:52:10;;;;;;;1999.90;999.90;;;6.60;99.90;;;;;;5052680;28;20409;-73
2023/12/22 11:54:45;;;;;;;1999.90;999.90;;;6.70;99.90;;;;;;5051012;28;21042;-69
2023/12/22 11:57:33;;;;;;;1999.90;999.90;;;6.80;99.90;;;;;;5053203;28;20538;-69
2023/12/22 12:00:04;;;;;;;1999.90;999.90;;;6.80;99.90;;;;;;5052706;28;20416;-69
2023/12/22 12:02:33;;;;;;;1999.90;999.90;;;6.90;99.90;;;;;;5052983;28;21263;-71
2023/12/22 12:05:00;;;;;;;1999.90;999.90;;;7.00;99.90;;;;;;5052328;28;20479;-72
2023/12/22 12:07:44;;;;;;;1999.90;999.90;;;6.90;99.90;;;;;;5047913;28;20492;-69
2023/12/22 12:10:11;;;;;;;1999.90;999.90;;;6.90;99.90;;;;;;5048317;28;20440;-70